^^
Datos históricos de la estación: Murcia-Puente Tocinos
Diario Informe para Mayo 23, 2019 Unidades:  Ambas    Ingés   Métrico
Diario Semanal Mensual Anual
  Máxima: Mínima: Promedio:
Temperatura: 95.4 °F /  35.2 °C 74.1 °F /  23.4 °C 84.4 °F /  29.1 °C
Punto de rocio: 66.9 °F /  19.4 °C 46.4 °F /  8 °C 57.2 °F /  14 °C
Humedad: 68% 20% 43%
Velocidad viento: 11.8mph /  19km/h - 5.6mph /  9km/h
Racha viento: 20.1mph /  32.3km/h - -
Viento- - ESE
Presión: 30.1 in /  1017.7 hPa 29.9 in /  1013.2 hPa -
Precipitación: 0 in /  0.0 mm    
 
 
Tabla de datos para Mayo 23, 2019
Hora Temperatura Punto de rocio Presión Viento Velocidad viento Racha viento Humedad Intensidad lluvia(por hora) Nubes
00:04 79.3 °F /  26.3 °C 66.6 °F /  19.2 °C 30.1in /  1017.6hPa ENE 2.4mph /  3.9km/h 5.8mph /  9.3km/h 65% 0in /  0.0mm
00:09 79.3 °F /  26.3 °C 66.6 °F /  19.2 °C 30.1in /  1017.6hPa NE 4.3mph /  6.9km/h 5.8mph /  9.3km/h 65% 0in /  0.0mm
00:14 79.2 °F /  26.2 °C 66.4 °F /  19.1 °C 30.1in /  1017.6hPa NE 4.3mph /  6.9km/h 5.8mph /  9.3km/h 65% 0in /  0.0mm
00:19 79.2 °F /  26.2 °C 66.7 °F /  19.3 °C 30.1in /  1017.6hPa Este 4.3mph /  6.9km/h 8.1mph /  13km/h 66% 0in /  0.0mm
00:24 79.2 °F /  26.2 °C 66.7 °F /  19.3 °C 30.1in /  1017.6hPa NE 4.3mph /  6.9km/h 5.8mph /  9.3km/h 66% 0in /  0.0mm
00:29 79.2 °F /  26.2 °C 66.7 °F /  19.3 °C 30.1in /  1017.6hPa NE 4.7mph /  7.6km/h 6.9mph /  11.1km/h 66% 0in /  0.0mm
00:34 79.2 °F /  26.2 °C 66.7 °F /  19.3 °C 30.1in /  1017.7hPa NNE 4.7mph /  7.6km/h 4.6mph /  7.4km/h 66% 0in /  0.0mm
00:39 79 °F /  26.1 °C 66.6 °F /  19.2 °C 30.1in /  1017.7hPa NO 2.9mph /  4.7km/h 3.6mph /  5.8km/h 66% 0in /  0.0mm
00:44 78.8 °F /  26 °C 66.6 °F /  19.2 °C 30.1in /  1017.7hPa NO 2.9mph /  4.7km/h 2.3mph /  3.7km/h 66% 0in /  0.0mm
00:49 78.6 °F /  25.9 °C 66.4 °F /  19.1 °C 30.1in /  1017.7hPa NO 1.8mph /  2.9km/h 3.5mph /  5.6km/h 66% 0in /  0.0mm
00:54 78.6 °F /  25.9 °C 66.7 °F /  19.3 °C 30.1in /  1017.7hPa NO 1.8mph /  2.9km/h 1.8mph /  2.9km/h 67% 0in /  0.0mm
00:59 78.6 °F /  25.9 °C 66.7 °F /  19.3 °C 30.1in /  1017.7hPa Calm     67% 0in /  0.0mm
01:04 78.6 °F /  25.9 °C 66.7 °F /  19.3 °C 30.1in /  1017.6hPa Calm     67% 0in /  0.0mm
01:09 78.6 °F /  25.9 °C 66.7 °F /  19.3 °C 30.1in /  1017.6hPa Calm     67% 0in /  0.0mm
01:14 78.6 °F /  25.9 °C 66.7 °F /  19.3 °C 30.1in /  1017.6hPa Calm     67% 0in /  0.0mm
01:19 78.8 °F /  26 °C 66.9 °F /  19.4 °C 30.1in /  1017.6hPa Calm     67% 0in /  0.0mm
01:24 78.8 °F /  26 °C 66.9 °F /  19.4 °C 30.1in /  1017.6hPa Calm     67% 0in /  0.0mm
01:29 78.8 °F /  26 °C 66.6 °F /  19.2 °C 30.1in /  1017.6hPa Calm     66% 0in /  0.0mm
01:34 78.8 °F /  26 °C 66.6 °F /  19.2 °C 30.1in /  1017.5hPa Calm     66% 0in /  0.0mm
01:39 79 °F /  26.1 °C 66.6 °F /  19.2 °C 30.1in /  1017.5hPa Calm     66% 0in /  0.0mm
01:44 79 °F /  26.1 °C 66.2 °F /  19 °C 30.1in /  1017.5hPa Calm   2.3mph /  3.7km/h 65% 0in /  0.0mm
01:49 79.2 °F /  26.2 °C 66.4 °F /  19.1 °C 30in /  1017.4hPa Calm     65% 0in /  0.0mm
01:54 79.2 °F /  26.2 °C 66.4 °F /  19.1 °C 30in /  1017.4hPa Calm     65% 0in /  0.0mm
01:59 79.2 °F /  26.2 °C 66.4 °F /  19.1 °C 30in /  1017.4hPa Calm     65% 0in /  0.0mm
02:04 79.2 °F /  26.2 °C 66.4 °F /  19.1 °C 30in /  1017.2hPa Calm     65% 0in /  0.0mm
02:09 79.2 °F /  26.2 °C 65.8 °F /  18.8 °C 30in /  1017.2hPa Calm     64% 0in /  0.0mm
02:14 79.2 °F /  26.2 °C 66.4 °F /  19.1 °C 30in /  1017.2hPa Calm     65% 0in /  0.0mm
02:19 79.2 °F /  26.2 °C 66.4 °F /  19.1 °C 30in /  1017.0hPa Calm     65% 0in /  0.0mm
02:24 79 °F /  26.1 °C 66.2 °F /  19 °C 30in /  1017.0hPa Calm   3.5mph /  5.6km/h 65% 0in /  0.0mm
02:29 78.4 °F /  25.8 °C 65.1 °F /  18.4 °C 30in /  1017.0hPa NO 1.4mph /  2.3km/h   64% 0in /  0.0mm
02:34 78.1 °F /  25.6 °C 65.5 °F /  18.6 °C 30in /  1017.1hPa NO 1.4mph /  2.3km/h   65% 0in /  0.0mm
02:39 77.7 °F /  25.4 °C 65.5 °F /  18.6 °C 30in /  1017.1hPa Calm     66% 0in /  0.0mm
02:44 77.5 °F /  25.3 °C 65.7 °F /  18.7 °C 30in /  1017.1hPa Calm   3.1mph /  5km/h 67% 0in /  0.0mm
02:49 77.5 °F /  25.3 °C 65.7 °F /  18.7 °C 30in /  1016.9hPa Sur 1.8mph /  2.9km/h 3.5mph /  5.6km/h 67% 0in /  0.0mm
02:54 77.5 °F /  25.3 °C 66 °F /  18.9 °C 30in /  1016.9hPa SSE 1.8mph /  2.9km/h 4.7mph /  7.6km/h 68% 0in /  0.0mm
02:59 77.5 °F /  25.3 °C 64.8 °F /  18.2 °C 30in /  1016.9hPa SE 3.6mph /  5.8km/h 6.9mph /  11.1km/h 65% 0in /  0.0mm
03:04 77.7 °F /  25.4 °C 64.9 °F /  18.3 °C 30in /  1016.9hPa SO 3.6mph /  5.8km/h 3.6mph /  5.8km/h 65% 0in /  0.0mm
03:09 77.7 °F /  25.4 °C 64 °F /  17.8 °C 30in /  1016.9hPa SSO 3.1mph /  5km/h 5.8mph /  9.3km/h 63% 0in /  0.0mm
03:14 77.7 °F /  25.4 °C 62.8 °F /  17.1 °C 30in /  1016.9hPa SSO 3.1mph /  5km/h 8.1mph /  13km/h 60% 0in /  0.0mm
03:19 77.7 °F /  25.4 °C 62.2 °F /  16.8 °C 30in /  1016.8hPa SSO 4.7mph /  7.6km/h 6.9mph /  11.1km/h 59% 0in /  0.0mm
03:24 77.7 °F /  25.4 °C 62.2 °F /  16.8 °C 30in /  1016.8hPa SO 4.7mph /  7.6km/h 6.4mph /  10.3km/h 59% 0in /  0.0mm
03:29 77.5 °F /  25.3 °C 61.5 °F /  16.4 °C 30in /  1016.8hPa Oeste 4.3mph /  6.9km/h 8.1mph /  13km/h 58% 0in /  0.0mm
03:34 77.4 °F /  25.2 °C 61 °F /  16.1 °C 30in /  1016.8hPa SO 4.3mph /  6.9km/h 10.4mph /  16.7km/h 57% 0in /  0.0mm
03:39 77.2 °F /  25.1 °C 60.8 °F /  16 °C 30in /  1016.8hPa SO 5.4mph /  8.7km/h 9.2mph /  14.8km/h 57% 0in /  0.0mm
03:44 77.2 °F /  25.1 °C 60.8 °F /  16 °C 30in /  1016.8hPa OSO 5.4mph /  8.7km/h 8.5mph /  13.7km/h 57% 0in /  0.0mm
03:49 77.2 °F /  25.1 °C 60.8 °F /  16 °C 30in /  1016.9hPa OSO 4.7mph /  7.6km/h 5.8mph /  9.3km/h 57% 0in /  0.0mm
03:54 77.2 °F /  25.1 °C 60.8 °F /  16 °C 30in /  1016.9hPa SSO 4.7mph /  7.6km/h 5.9mph /  9.5km/h 57% 0in /  0.0mm
03:59 77 °F /  25 °C 60.6 °F /  15.9 °C 30in /  1016.9hPa OSO 4mph /  6.4km/h 4.6mph /  7.4km/h 57% 0in /  0.0mm
04:04 77.2 °F /  25.1 °C 60.8 °F /  16 °C 30in /  1016.7hPa SO 4mph /  6.4km/h 6.9mph /  11.1km/h 57% 0in /  0.0mm
04:09 77.2 °F /  25.1 °C 60.8 °F /  16 °C 30in /  1016.7hPa Oeste 4.3mph /  6.9km/h 4.6mph /  7.4km/h 57% 0in /  0.0mm
04:14 77.2 °F /  25.1 °C 60.8 °F /  16 °C 30in /  1016.7hPa SO 4.3mph /  6.9km/h 3.5mph /  5.6km/h 57% 0in /  0.0mm
04:19 77.2 °F /  25.1 °C 60.8 °F /  16 °C 30in /  1016.5hPa SSO 2.9mph /  4.7km/h 4.6mph /  7.4km/h 57% 0in /  0.0mm
04:24 77.2 °F /  25.1 °C 61.3 °F /  16.3 °C 30in /  1016.5hPa SSE 2.9mph /  4.7km/h 4.6mph /  7.4km/h 58% 0in /  0.0mm
04:29 77 °F /  25 °C 61.2 °F /  16.2 °C 30in /  1016.5hPa Sur 2.9mph /  4.7km/h 3.6mph /  5.8km/h 58% 0in /  0.0mm
04:34 76.8 °F /  24.9 °C 61.3 °F /  16.3 °C 30in /  1016.4hPa Sur 2.9mph /  4.7km/h 4.6mph /  7.4km/h 59% 0in /  0.0mm
04:39 76.8 °F /  24.9 °C 61.3 °F /  16.3 °C 30in /  1016.4hPa SSO 3.6mph /  5.8km/h 5.9mph /  9.5km/h 59% 0in /  0.0mm
04:44 76.6 °F /  24.8 °C 61.2 °F /  16.2 °C 30in /  1016.4hPa Sur 3.6mph /  5.8km/h 4.6mph /  7.4km/h 59% 0in /  0.0mm
04:49 76.6 °F /  24.8 °C 61.2 °F /  16.2 °C 30in /  1016.2hPa SSE 3.1mph /  5km/h 4.6mph /  7.4km/h 59% 0in /  0.0mm
04:54 76.6 °F /  24.8 °C 61.2 °F /  16.2 °C 30in /  1016.2hPa Sur 3.1mph /  5km/h 5.9mph /  9.5km/h 59% 0in /  0.0mm
04:59 76.6 °F /  24.8 °C 61.2 °F /  16.2 °C 30in /  1016.2hPa Sur 3.6mph /  5.8km/h 5.8mph /  9.3km/h 59% 0in /  0.0mm
05:04 76.6 °F /  24.8 °C 61.2 °F /  16.2 °C 30in /  1016.1hPa Sur 3.6mph /  5.8km/h 2.4mph /  3.9km/h 59% 0in /  0.0mm
05:09 76.6 °F /  24.8 °C 60.8 °F /  16 °C 30in /  1016.1hPa SSO 2.4mph /  3.9km/h 4.6mph /  7.4km/h 58% 0in /  0.0mm
05:14 76.8 °F /  24.9 °C 61 °F /  16.1 °C 30in /  1016.1hPa SSO 2.4mph /  3.9km/h 4.6mph /  7.4km/h 58% 0in /  0.0mm
05:19 76.8 °F /  24.9 °C 61.3 °F /  16.3 °C 30in /  1015.9hPa SSO 2mph /  3.2km/h 2.3mph /  3.7km/h 59% 0in /  0.0mm
05:24 76.8 °F /  24.9 °C 61.3 °F /  16.3 °C 30in /  1015.9hPa SSO 2mph /  3.2km/h   59% 0in /  0.0mm
05:29 76.8 °F /  24.9 °C 63.3 °F /  17.4 °C 30in /  1015.9hPa SSO 1.4mph /  2.3km/h 2.3mph /  3.7km/h 63% 0in /  0.0mm
05:34 76.6 °F /  24.8 °C 63.5 °F /  17.5 °C 30in /  1016.0hPa SSO 1.4mph /  2.3km/h 3.5mph /  5.6km/h 64% 0in /  0.0mm
05:39 76.3 °F /  24.6 °C 63.1 °F /  17.3 °C 30in /  1016.0hPa Sur 1.8mph /  2.9km/h 4.6mph /  7.4km/h 64% 0in /  0.0mm
05:44 75.9 °F /  24.4 °C 63.3 °F /  17.4 °C 30in /  1016.0hPa Sur 1.8mph /  2.9km/h 2.3mph /  3.7km/h 65% 0in /  0.0mm
05:49 75.6 °F /  24.2 °C 62.4 °F /  16.9 °C 30in /  1016.1hPa SSO 2mph /  3.2km/h 5.8mph /  9.3km/h 64% 0in /  0.0mm
05:54 75.6 °F /  24.2 °C 62.1 °F /  16.7 °C 30in /  1016.1hPa SSO 2mph /  3.2km/h 4.6mph /  7.4km/h 63% 0in /  0.0mm
05:59 75.4 °F /  24.1 °C 61 °F /  16.1 °C 30in /  1016.1hPa SO 4mph /  6.4km/h 6.9mph /  11.1km/h 61% 0in /  0.0mm
06:04 75.4 °F /  24.1 °C 60.4 °F /  15.8 °C 30in /  1016.2hPa SSO 4mph /  6.4km/h 4.6mph /  7.4km/h 60% 0in /  0.0mm
06:09 75.6 °F /  24.2 °C 61.2 °F /  16.2 °C 30in /  1016.2hPa SSO 2.9mph /  4.7km/h   61% 0in /  0.0mm
06:14 75.6 °F /  24.2 °C 61.2 °F /  16.2 °C 30in /  1016.2hPa SSO 2.9mph /  4.7km/h   61% 0in /  0.0mm
06:19 75.4 °F /  24.1 °C 61.5 °F /  16.4 °C 30in /  1016.0hPa SE 1.4mph /  2.3km/h 3.5mph /  5.6km/h 62% 0in /  0.0mm
06:24 75 °F /  23.9 °C 61.2 °F /  16.2 °C 30in /  1016.0hPa SSE 1.4mph /  2.3km/h 5.2mph /  8.4km/h 62% 0in /  0.0mm
06:29 74.5 °F /  23.6 °C 60.6 °F /  15.9 °C 30in /  1016.0hPa SSO 3.1mph /  5km/h 6.4mph /  10.3km/h 62% 0in /  0.0mm
06:34 74.1 °F /  23.4 °C 59.7 °F /  15.4 °C 30in /  1016.1hPa SSE 3.1mph /  5km/h 6.9mph /  11.1km/h 61% 0in /  0.0mm
06:39 74.1 °F /  23.4 °C 59.7 °F /  15.4 °C 30in /  1016.1hPa SSO 5.4mph /  8.7km/h 9.2mph /  14.8km/h 61% 0in /  0.0mm
06:44 74.3 °F /  23.5 °C 59.5 °F /  15.3 °C 30in /  1016.1hPa SSO 5.4mph /  8.7km/h 5.8mph /  9.3km/h 60% 0in /  0.0mm
06:49 74.5 °F /  23.6 °C 59.2 °F /  15.1 °C 30in /  1016.1hPa SSO 5.9mph /  9.5km/h 8.1mph /  13km/h 59% 0in /  0.0mm
06:54 74.5 °F /  23.6 °C 59.2 °F /  15.1 °C 30in /  1016.1hPa SSO 5.9mph /  9.5km/h 5.4mph /  8.7km/h 59% 0in /  0.0mm
06:59 74.7 °F /  23.7 °C 59.4 °F /  15.2 °C 30in /  1016.1hPa SO 4.7mph /  7.6km/h 6.9mph /  11.1km/h 59% 0in /  0.0mm
07:04 74.7 °F /  23.7 °C 59.4 °F /  15.2 °C 30in /  1016.0hPa SO 4.7mph /  7.6km/h 5.8mph /  9.3km/h 59% 0in /  0.0mm
07:09 74.7 °F /  23.7 °C 58.8 °F /  14.9 °C 30in /  1016.0hPa SSO 4.3mph /  6.9km/h 6.9mph /  11.1km/h 58% 0in /  0.0mm
07:14 74.5 °F /  23.6 °C 58.6 °F /  14.8 °C 30in /  1016.0hPa SSO 4.3mph /  6.9km/h 6.2mph /  10km/h 58% 0in /  0.0mm
07:19 74.5 °F /  23.6 °C 58.6 °F /  14.8 °C 30in /  1015.9hPa SSO 4.7mph /  7.6km/h 4.6mph /  7.4km/h 58% 0in /  0.0mm
07:24 74.5 °F /  23.6 °C 58.6 °F /  14.8 °C 30in /  1015.9hPa SO 4.7mph /  7.6km/h 4.6mph /  7.4km/h 58% 0in /  0.0mm
07:29 74.5 °F /  23.6 °C 58.6 °F /  14.8 °C 30in /  1015.9hPa Sur 4mph /  6.4km/h 5.8mph /  9.3km/h 58% 0in /  0.0mm
07:34 74.3 °F /  23.5 °C 58.6 °F /  14.8 °C 30in /  1016.2hPa Sur 4mph /  6.4km/h 6.9mph /  11.1km/h 58% 0in /  0.0mm
07:39 74.1 °F /  23.4 °C 58.5 °F /  14.7 °C 30in /  1016.2hPa Sur 5.2mph /  8.4km/h 8.7mph /  14km/h 58% 0in /  0.0mm
07:44 74.1 °F /  23.4 °C 58.5 °F /  14.7 °C 30in /  1016.2hPa SSO 5.2mph /  8.4km/h 9.2mph /  14.8km/h 58% 0in /  0.0mm
07:49 74.5 °F /  23.6 °C 58.3 °F /  14.6 °C 30in /  1016.3hPa Sur 6.2mph /  10km/h 8.1mph /  13km/h 57% 0in /  0.0mm
07:54 74.7 °F /  23.7 °C 58.5 °F /  14.7 °C 30in /  1016.3hPa Sur 6.2mph /  10km/h 9.2mph /  14.8km/h 57% 0in /  0.0mm
07:59 74.8 °F /  23.8 °C 57.6 °F /  14.2 °C 30in /  1016.3hPa SSO 5.9mph /  9.5km/h 6.9mph /  11.1km/h 55% 0in /  0.0mm
08:04 75 °F /  23.9 °C 57.7 °F /  14.3 °C 30in /  1016.3hPa Sur 5.9mph /  9.5km/h 6.9mph /  11.1km/h 55% 0in /  0.0mm
08:09 75.2 °F /  24 °C 57.9 °F /  14.4 °C 30in /  1016.3hPa Sur 4.7mph /  7.6km/h 5.2mph /  8.4km/h 55% 0in /  0.0mm
08:14 75.4 °F /  24.1 °C 57.6 °F /  14.2 °C 30in /  1016.3hPa SSO 4.7mph /  7.6km/h 7.4mph /  11.9km/h 54% 0in /  0.0mm
08:19 75.7 °F /  24.3 °C 57.9 °F /  14.4 °C 30in /  1016.4hPa SSO 5.2mph /  8.4km/h 7.4mph /  11.9km/h 54% 0in /  0.0mm
08:24 75.9 °F /  24.4 °C 57.6 °F /  14.2 °C 30in /  1016.4hPa SSO 5.2mph /  8.4km/h 9.2mph /  14.8km/h 53% 0in /  0.0mm
08:29 75.9 °F /  24.4 °C 57.6 °F /  14.2 °C 30in /  1016.4hPa SO 5.9mph /  9.5km/h 6.9mph /  11.1km/h 53% 0in /  0.0mm
08:34 76.3 °F /  24.6 °C 57.4 °F /  14.1 °C 30in /  1016.5hPa SSO 5.9mph /  9.5km/h 8.1mph /  13km/h 52% 0in /  0.0mm
08:39 76.5 °F /  24.7 °C 57.6 °F /  14.2 °C 30in /  1016.5hPa SO 5.4mph /  8.7km/h 5.8mph /  9.3km/h 52% 0in /  0.0mm
08:44 76.6 °F /  24.8 °C 57.7 °F /  14.3 °C 30in /  1016.5hPa SO 5.4mph /  8.7km/h 8.1mph /  13km/h 52% 0in /  0.0mm
08:49 76.6 °F /  24.8 °C 57.7 °F /  14.3 °C 30in /  1016.4hPa SSO 5.4mph /  8.7km/h 6.9mph /  11.1km/h 52% 0in /  0.0mm
08:54 76.8 °F /  24.9 °C 57.4 °F /  14.1 °C 30in /  1016.4hPa SSO 5.4mph /  8.7km/h 5.8mph /  9.3km/h 51% 0in /  0.0mm
08:59 77.2 °F /  25.1 °C 57.7 °F /  14.3 °C 30in /  1016.4hPa Sur 3.6mph /  5.8km/h 5.8mph /  9.3km/h 51% 0in /  0.0mm
09:04 77.4 °F /  25.2 °C 57.4 °F /  14.1 °C 30in /  1016.4hPa SSE 3.6mph /  5.8km/h 6.9mph /  11.1km/h 50% 0in /  0.0mm
09:09 77.5 °F /  25.3 °C 57.4 °F /  14.1 °C 30in /  1016.4hPa Sur 4.7mph /  7.6km/h 8.5mph /  13.7km/h 50% 0in /  0.0mm
09:14 77.5 °F /  25.3 °C 57.4 °F /  14.1 °C 30in /  1016.4hPa SSO 4.7mph /  7.6km/h 10.4mph /  16.7km/h 50% 0in /  0.0mm
09:19 77.5 °F /  25.3 °C 57.4 °F /  14.1 °C 30in /  1016.4hPa SO 7.4mph /  11.9km/h 9.2mph /  14.8km/h 50% 0in /  0.0mm
09:24 77.7 °F /  25.4 °C 57 °F /  13.9 °C 30in /  1016.4hPa NO 7.4mph /  11.9km/h 8.1mph /  13km/h 49% 0in /  0.0mm
09:29 78.1 °F /  25.6 °C 57.4 °F /  14.1 °C 30in /  1016.4hPa SSO 5.9mph /  9.5km/h 6.9mph /  11.1km/h 49% 0in /  0.0mm
09:34 78.3 °F /  25.7 °C 57.6 °F /  14.2 °C 30in /  1016.2hPa SO 5.9mph /  9.5km/h 5.8mph /  9.3km/h 49% 0in /  0.0mm
09:39 78.6 °F /  25.9 °C 57.9 °F /  14.4 °C 30in /  1016.2hPa SSO 4.3mph /  6.9km/h 6.9mph /  11.1km/h 49% 0in /  0.0mm
09:44 79 °F /  26.1 °C 58.3 °F /  14.6 °C 30in /  1016.2hPa SSO 4.3mph /  6.9km/h 5.8mph /  9.3km/h 49% 0in /  0.0mm
09:49 79.3 °F /  26.3 °C 57.9 °F /  14.4 °C 30in /  1016.4hPa Oeste 4mph /  6.4km/h 4.6mph /  7.4km/h 48% 0in /  0.0mm
09:54 79.9 °F /  26.6 °C 57.7 °F /  14.3 °C 30in /  1016.4hPa Sur 4mph /  6.4km/h 4.6mph /  7.4km/h 47% 0in /  0.0mm
09:59 80.4 °F /  26.9 °C 57.7 °F /  14.3 °C 30in /  1016.4hPa Sur 3.6mph /  5.8km/h 5.9mph /  9.5km/h 46% 0in /  0.0mm
10:04 80.6 °F /  27 °C 57.9 °F /  14.4 °C 30in /  1016.4hPa Sur 3.6mph /  5.8km/h 6.9mph /  11.1km/h 46% 0in /  0.0mm
10:09 81 °F /  27.2 °C 58.3 °F /  14.6 °C 30in /  1016.4hPa Sur 4.3mph /  6.9km/h 8.1mph /  13km/h 46% 0in /  0.0mm
10:14 81.1 °F /  27.3 °C 58.5 °F /  14.7 °C 30in /  1016.4hPa SSO 4.3mph /  6.9km/h 6.9mph /  11.1km/h 46% 0in /  0.0mm
10:19 81.5 °F /  27.5 °C 58.6 °F /  14.8 °C 30in /  1016.4hPa SO 5.9mph /  9.5km/h 8.1mph /  13km/h 46% 0in /  0.0mm
10:24 81.7 °F /  27.6 °C 58.8 °F /  14.9 °C 30in /  1016.4hPa SO 5.9mph /  9.5km/h 8.1mph /  13km/h 46% 0in /  0.0mm
10:29 82 °F /  27.8 °C 58.6 °F /  14.8 °C 30in /  1016.4hPa Sur 5.9mph /  9.5km/h 8.1mph /  13km/h 45% 0in /  0.0mm
10:34 82 °F /  27.8 °C 57.9 °F /  14.4 °C 30in /  1016.3hPa SE 5.9mph /  9.5km/h 9.2mph /  14.8km/h 44% 0in /  0.0mm
10:39 82.8 °F /  28.2 °C 58.6 °F /  14.8 °C 30in /  1016.3hPa SE 5.2mph /  8.4km/h 5.8mph /  9.3km/h 44% 0in /  0.0mm
10:44 82.9 °F /  28.3 °C 58.1 °F /  14.5 °C 30in /  1016.3hPa SSO 5.2mph /  8.4km/h 8.1mph /  13km/h 43% 0in /  0.0mm
10:49 83.5 °F /  28.6 °C 58.6 °F /  14.8 °C 30in /  1016.1hPa SSE 5.2mph /  8.4km/h 8.1mph /  13km/h 43% 0in /  0.0mm
10:54 83.8 °F /  28.8 °C 58.3 °F /  14.6 °C 30in /  1016.1hPa SSE 5.2mph /  8.4km/h 7.4mph /  11.9km/h 42% 0in /  0.0mm
10:59 84.2 °F /  29 °C 57.9 °F /  14.4 °C 30in /  1016.1hPa Sur 5.2mph /  8.4km/h 5.8mph /  9.3km/h 41% 0in /  0.0mm
11:04 84.6 °F /  29.2 °C 56.8 °F /  13.8 °C 30in /  1016.1hPa SO 5.2mph /  8.4km/h 4.6mph /  7.4km/h 39% 0in /  0.0mm
11:09 85.3 °F /  29.6 °C 56.8 °F /  13.8 °C 30in /  1016.1hPa SSO 2.9mph /  4.7km/h 3.5mph /  5.6km/h 38% 0in /  0.0mm
11:14 86 °F /  30 °C 56.7 °F /  13.7 °C 30in /  1016.1hPa Oeste 2.9mph /  4.7km/h 2.4mph /  3.9km/h 37% 0in /  0.0mm
11:19 86.7 °F /  30.4 °C 55.8 °F /  13.2 °C 30in /  1016.0hPa Este 1.8mph /  2.9km/h 4mph /  6.4km/h 35% 0in /  0.0mm
11:24 87.3 °F /  30.7 °C 55.6 °F /  13.1 °C 30in /  1016.0hPa NE 1.8mph /  2.9km/h 5.8mph /  9.3km/h 34% 0in /  0.0mm
11:29 87.6 °F /  30.9 °C 54.1 °F /  12.3 °C 30in /  1016.0hPa North 3.6mph /  5.8km/h 4.6mph /  7.4km/h 32% 0in /  0.0mm
11:34 88 °F /  31.1 °C 54.3 °F /  12.4 °C 30in /  1016.0hPa NE 3.6mph /  5.8km/h 8.1mph /  13km/h 32% 0in /  0.0mm
11:39 87.8 °F /  31 °C 52.5 °F /  11.4 °C 30in /  1016.0hPa NE 4mph /  6.4km/h 10.7mph /  17.2km/h 30% 0in /  0.0mm
11:44 87.4 °F /  30.8 °C 53.1 °F /  11.7 °C 30in /  1016.0hPa NE 4mph /  6.4km/h 11.5mph /  18.5km/h 31% 0in /  0.0mm
11:49 87.4 °F /  30.8 °C 54 °F /  12.2 °C 30in /  1015.8hPa NNE 6.4mph /  10.3km/h 8.5mph /  13.7km/h 32% 0in /  0.0mm
11:54 88 °F /  31.1 °C 53.6 °F /  12 °C 30in /  1015.8hPa NNE 6.4mph /  10.3km/h 6.4mph /  10.3km/h 31% 0in /  0.0mm
11:59 88.2 °F /  31.2 °C 52.9 °F /  11.6 °C 30in /  1015.8hPa NE 5.4mph /  8.7km/h 9.2mph /  14.8km/h 30% 0in /  0.0mm
12:04 88.7 °F /  31.5 °C 51.4 °F /  10.8 °C 30in /  1015.8hPa North 5.4mph /  8.7km/h 9.2mph /  14.8km/h 28% 0in /  0.0mm
12:09 89.1 °F /  31.7 °C 50.7 °F /  10.4 °C 30in /  1015.8hPa ENE 5.2mph /  8.4km/h 12.7mph /  20.4km/h 27% 0in /  0.0mm
12:14 89.4 °F /  31.9 °C 52 °F /  11.1 °C 30in /  1015.8hPa NE 5.2mph /  8.4km/h 9.2mph /  14.8km/h 28% 0in /  0.0mm
12:19 89.8 °F /  32.1 °C 52.3 °F /  11.3 °C 30in /  1015.7hPa NNE 6.9mph /  11.1km/h 9.2mph /  14.8km/h 28% 0in /  0.0mm
12:24 89.4 °F /  31.9 °C 52 °F /  11.1 °C 30in /  1015.7hPa Este 6.9mph /  11.1km/h 11.5mph /  18.5km/h 28% 0in /  0.0mm
12:29 89.8 °F /  32.1 °C 53.2 °F /  11.8 °C 30in /  1015.7hPa NE 6.9mph /  11.1km/h 10.4mph /  16.7km/h 29% 0in /  0.0mm
12:34 89.8 °F /  32.1 °C 52.3 °F /  11.3 °C 30in /  1015.6hPa NE 6.9mph /  11.1km/h 10.2mph /  16.4km/h 28% 0in /  0.0mm
12:39 90.3 °F /  32.4 °C 52.9 °F /  11.6 °C 30in /  1015.6hPa NNO 6.4mph /  10.3km/h 11.5mph /  18.5km/h 28% 0in /  0.0mm
12:44 90.7 °F /  32.6 °C 53.1 °F /  11.7 °C 30in /  1015.6hPa ENE 6.4mph /  10.3km/h 12.7mph /  20.4km/h 28% 0in /  0.0mm
12:49 90.5 °F /  32.5 °C 52.9 °F /  11.6 °C 30in /  1015.5hPa NE 8.5mph /  13.7km/h 10.7mph /  17.2km/h 28% 0in /  0.0mm
12:54 90.7 °F /  32.6 °C 54.1 °F /  12.3 °C 30in /  1015.5hPa ENE 8.5mph /  13.7km/h 5.9mph /  9.5km/h 29% 0in /  0.0mm
12:59 91 °F /  32.8 °C 54.3 °F /  12.4 °C 30in /  1015.5hPa NE 7.4mph /  11.9km/h 12.7mph /  20.4km/h 29% 0in /  0.0mm
13:04 90.7 °F /  32.6 °C 55 °F /  12.8 °C 30in /  1015.4hPa NE 7.4mph /  11.9km/h 5.4mph /  8.7km/h 30% 0in /  0.0mm
13:09 91.2 °F /  32.9 °C 54.5 °F /  12.5 °C 30in /  1015.4hPa Este 6.4mph /  10.3km/h 11.5mph /  18.5km/h 29% 0in /  0.0mm
13:14 91.6 °F /  33.1 °C 51.8 °F /  11 °C 30in /  1015.4hPa NE 6.4mph /  10.3km/h 15mph /  24.1km/h 26% 0in /  0.0mm
13:19 91.9 °F /  33.3 °C 51.1 °F /  10.6 °C 30in /  1015.3hPa NE 8.7mph /  14km/h 13mph /  20.9km/h 25% 0in /  0.0mm
13:24 92.1 °F /  33.4 °C 51.3 °F /  10.7 °C 30in /  1015.3hPa ENE 8.7mph /  14km/h 11.5mph /  18.5km/h 25% 0in /  0.0mm
13:29 92.3 °F /  33.5 °C 51.4 °F /  10.8 °C 30in /  1015.3hPa ENE 8.7mph /  14km/h 13.8mph /  22.2km/h 25% 0in /  0.0mm
13:34 92.5 °F /  33.6 °C 51.4 °F /  10.8 °C 30in /  1015.2hPa NE 8.7mph /  14km/h 16.1mph /  25.9km/h 25% 0in /  0.0mm
13:39 92.3 °F /  33.5 °C 52.5 °F /  11.4 °C 30in /  1015.2hPa ENE 9.7mph /  15.6km/h 9.2mph /  14.8km/h 26% 0in /  0.0mm
13:44 92.3 °F /  33.5 °C 51.4 °F /  10.8 °C 30in /  1015.2hPa NE 9.7mph /  15.6km/h 17.3mph /  27.8km/h 25% 0in /  0.0mm
13:49 92.1 °F /  33.4 °C 50.2 °F /  10.1 °C 30in /  1015.1hPa ENE 10mph /  16.1km/h 11.8mph /  19km/h 24% 0in /  0.0mm
13:54 92.1 °F /  33.4 °C 51.3 °F /  10.7 °C 30in /  1015.1hPa ENE 10mph /  16.1km/h 16.1mph /  25.9km/h 25% 0in /  0.0mm
13:59 92.7 °F /  33.7 °C 50.5 °F /  10.3 °C 30in /  1015.1hPa NNE 9.2mph /  14.8km/h 20.1mph /  32.3km/h 24% 0in /  0.0mm
14:04 92.5 °F /  33.6 °C 50.4 °F /  10.2 °C 30in /  1015.0hPa NNE 9.2mph /  14.8km/h 18.4mph /  29.6km/h 24% 0in /  0.0mm
14:09 92.7 °F /  33.7 °C 50.5 °F /  10.3 °C 30in /  1015.0hPa ENE 11.8mph /  19km/h 18.4mph /  29.6km/h 24% 0in /  0.0mm
14:14 92.5 °F /  33.6 °C 50.4 °F /  10.2 °C 30in /  1015.0hPa NE 11.8mph /  19km/h 18.4mph /  29.6km/h 24% 0in /  0.0mm
14:19 92.8 °F /  33.8 °C 49.6 °F /  9.8 °C 30in /  1014.9hPa NE 11.8mph /  19km/h 10.4mph /  16.7km/h 23% 0in /  0.0mm
14:24 93.4 °F /  34.1 °C 50 °F /  10 °C 30in /  1014.9hPa ENE 11.8mph /  19km/h 18.4mph /  29.6km/h 23% 0in /  0.0mm
14:29 93.6 °F /  34.2 °C 50.2 °F /  10.1 °C 30in /  1014.9hPa NNE 9.7mph /  15.6km/h 17.3mph /  27.8km/h 23% 0in /  0.0mm
14:34 93.4 °F /  34.1 °C 50 °F /  10 °C 30in /  1014.8hPa North 9.7mph /  15.6km/h 16.1mph /  25.9km/h 23% 0in /  0.0mm
14:39 93.6 °F /  34.2 °C 50.2 °F /  10.1 °C 30in /  1014.8hPa NNE 10.7mph /  17.2km/h 17.3mph /  27.8km/h 23% 0in /  0.0mm
14:44 93.7 °F /  34.3 °C 50.4 °F /  10.2 °C 30in /  1014.8hPa North 10.7mph /  17.2km/h 16.1mph /  25.9km/h 23% 0in /  0.0mm
14:48 94.1 °F /  34.5 °C 50.5 °F /  10.3 °C 30in /  1014.7hPa ENE 10.7mph /  17.2km/h 16.1mph /  25.9km/h 23% 0in /  0.0mm
14:54 94.1 °F /  34.5 °C 50.5 °F /  10.3 °C 30in /  1014.7hPa NE 10.7mph /  17.2km/h 13.8mph /  22.2km/h 23% 0in /  0.0mm
14:59 94.6 °F /  34.8 °C 49.8 °F /  9.9 °C 30in /  1014.7hPa ESE 8.5mph /  13.7km/h 11.5mph /  18.5km/h 22% 0in /  0.0mm
15:04 94.8 °F /  34.9 °C 50 °F /  10 °C 30in /  1014.6hPa ESE 8.5mph /  13.7km/h 12.5mph /  20.1km/h 22% 0in /  0.0mm
15:09 95.2 °F /  35.1 °C 49.1 °F /  9.5 °C 30in /  1014.6hPa ESE 7.6mph /  12.2km/h 11.5mph /  18.5km/h 21% 0in /  0.0mm
15:14 95 °F /  35 °C 48.9 °F /  9.4 °C 30in /  1014.6hPa NE 7.6mph /  12.2km/h 13mph /  20.9km/h 21% 0in /  0.0mm
15:19 95.2 °F /  35.1 °C 49.1 °F /  9.5 °C 30in /  1014.6hPa NE 7.4mph /  11.9km/h 17.3mph /  27.8km/h 21% 0in /  0.0mm
15:24 95.2 °F /  35.1 °C 47.8 °F /  8.8 °C 30in /  1014.6hPa ESE 7.4mph /  11.9km/h 12.7mph /  20.4km/h 20% 0in /  0.0mm
15:29 95.4 °F /  35.2 °C 47.8 °F /  8.8 °C 30in /  1014.6hPa ENE 8.5mph /  13.7km/h 15mph /  24.1km/h 20% 0in /  0.0mm
15:34 95 °F /  35 °C 48.9 °F /  9.4 °C 30in /  1014.5hPa Este 8.5mph /  13.7km/h 16.1mph /  25.9km/h 21% 0in /  0.0mm
15:39 94.8 °F /  34.9 °C 47.5 °F /  8.6 °C 30in /  1014.5hPa ESE 8.7mph /  14km/h 15mph /  24.1km/h 20% 0in /  0.0mm
15:44 94.8 °F /  34.9 °C 47.5 °F /  8.6 °C 30in /  1014.5hPa ENE 8.7mph /  14km/h 15mph /  24.1km/h 20% 0in /  0.0mm
15:49 94.8 °F /  34.9 °C 48.7 °F /  9.3 °C 30in /  1014.4hPa ENE 9.7mph /  15.6km/h 12.5mph /  20.1km/h 21% 0in /  0.0mm
15:54 94.6 °F /  34.8 °C 47.3 °F /  8.5 °C 30in /  1014.4hPa NE 9.7mph /  15.6km/h 18.4mph /  29.6km/h 20% 0in /  0.0mm
15:59 94.8 °F /  34.9 °C 48.7 °F /  9.3 °C 30in /  1014.4hPa NE 9.7mph /  15.6km/h 12.7mph /  20.4km/h 21% 0in /  0.0mm
16:04 95.4 °F /  35.2 °C 49.3 °F /  9.6 °C 30in /  1014.2hPa NE 9.7mph /  15.6km/h 9.2mph /  14.8km/h 21% 0in /  0.0mm
16:09 95.2 °F /  35.1 °C 49.1 °F /  9.5 °C 30in /  1014.2hPa NE 7.4mph /  11.9km/h 15mph /  24.1km/h 21% 0in /  0.0mm
16:14 94.8 °F /  34.9 °C 50 °F /  10 °C 30in /  1014.2hPa NE 7.4mph /  11.9km/h 13.8mph /  22.2km/h 22% 0in /  0.0mm
16:19 94.6 °F /  34.8 °C 49.8 °F /  9.9 °C 29.9in /  1014.0hPa ENE 10.2mph /  16.4km/h 15mph /  24.1km/h 22% 0in /  0.0mm
16:24 94.6 °F /  34.8 °C 48.6 °F /  9.2 °C 29.9in /  1014.0hPa NE 10.2mph /  16.4km/h 18.4mph /  29.6km/h 21% 0in /  0.0mm
16:29 94.6 °F /  34.8 °C 49.8 °F /  9.9 °C 29.9in /  1014.0hPa NE 9.7mph /  15.6km/h 12.7mph /  20.4km/h 22% 0in /  0.0mm
16:34 94.5 °F /  34.7 °C 50.9 °F /  10.5 °C 29.9in /  1013.9hPa NNE 9.7mph /  15.6km/h 12.7mph /  20.4km/h 23% 0in /  0.0mm
16:39 94.5 °F /  34.7 °C 50.9 °F /  10.5 °C 29.9in /  1013.9hPa ENE 9.7mph /  15.6km/h 15mph /  24.1km/h 23% 0in /  0.0mm
16:44 94.6 °F /  34.8 °C 52.2 °F /  11.2 °C 29.9in /  1013.9hPa NE 9.7mph /  15.6km/h 12.7mph /  20.4km/h 24% 0in /  0.0mm
16:49 94.6 °F /  34.8 °C 52.2 °F /  11.2 °C 29.9in /  1013.8hPa NO 8.1mph /  13km/h 13.5mph /  21.7km/h 24% 0in /  0.0mm
16:54 94.5 °F /  34.7 °C 52.2 °F /  11.2 °C 29.9in /  1013.8hPa NE 8.1mph /  13km/h 15mph /  24.1km/h 24% 0in /  0.0mm
16:59 94.5 °F /  34.7 °C 52.2 °F /  11.2 °C 29.9in /  1013.8hPa NNE 8.7mph /  14km/h 15mph /  24.1km/h 24% 0in /  0.0mm
17:04 94.6 °F /  34.8 °C 52.2 °F /  11.2 °C 29.9in /  1013.8hPa ONO 8.7mph /  14km/h 11.5mph /  18.5km/h 24% 0in /  0.0mm
17:09 94.5 °F /  34.7 °C 52.2 °F /  11.2 °C 29.9in /  1013.8hPa North 8.5mph /  13.7km/h 13.8mph /  22.2km/h 24% 0in /  0.0mm
17:14 94.5 °F /  34.7 °C 53.2 °F /  11.8 °C 29.9in /  1013.8hPa NNO 8.5mph /  13.7km/h 16.1mph /  25.9km/h 25% 0in /  0.0mm
17:19 94.5 °F /  34.7 °C 53.2 °F /  11.8 °C 29.9in /  1013.5hPa NE 8.1mph /  13km/h 16.1mph /  25.9km/h 25% 0in /  0.0mm
17:24 94.5 °F /  34.7 °C 54.3 °F /  12.4 °C 29.9in /  1013.5hPa Este 8.1mph /  13km/h 12.7mph /  20.4km/h 26% 0in /  0.0mm
17:29 94.3 °F /  34.6 °C 55.2 °F /  12.9 °C 29.9in /  1013.5hPa NNE 8.1mph /  13km/h 11.5mph /  18.5km/h 27% 0in /  0.0mm
17:34 93.9 °F /  34.4 °C 55.9 °F /  13.3 °C 29.9in /  1013.6hPa ESE 8.1mph /  13km/h 13.8mph /  22.2km/h 28% 0in /  0.0mm
17:39 93.7 °F /  34.3 °C 54.7 °F /  12.6 °C 29.9in /  1013.6hPa Este 8.5mph /  13.7km/h 12.7mph /  20.4km/h 27% 0in /  0.0mm
17:44 93.6 °F /  34.2 °C 55.6 °F /  13.1 °C 29.9in /  1013.6hPa NNE 8.5mph /  13.7km/h 12.7mph /  20.4km/h 28% 0in /  0.0mm
17:49 93.7 °F /  34.3 °C 55.8 °F /  13.2 °C 29.9in /  1013.5hPa NE 7.6mph /  12.2km/h 12.7mph /  20.4km/h 28% 0in /  0.0mm
17:54 93.4 °F /  34.1 °C 56.5 °F /  13.6 °C 29.9in /  1013.5hPa Este 7.6mph /  12.2km/h 15.9mph /  25.6km/h 29% 0in /  0.0mm
17:59 93.6 °F /  34.2 °C 56.5 °F /  13.6 °C 29.9in /  1013.5hPa NNE 8.7mph /  14km/h 11.5mph /  18.5km/h 29% 0in /  0.0mm
18:04 93.4 °F /  34.1 °C 56.5 °F /  13.6 °C 29.9in /  1013.5hPa ENE 8.7mph /  14km/h 13.8mph /  22.2km/h 29% 0in /  0.0mm
18:09 93.2 °F /  34 °C 56.1 °F /  13.4 °C 29.9in /  1013.5hPa SE 7.6mph /  12.2km/h 11.5mph /  18.5km/h 29% 0in /  0.0mm
18:14 93.4 °F /  34.1 °C 55.4 °F /  13 °C 29.9in /  1013.5hPa ENE 7.6mph /  12.2km/h 8.1mph /  13km/h 28% 0in /  0.0mm
18:19 93.4 °F /  34.1 °C 55.4 °F /  13 °C 29.9in /  1013.4hPa NE 6.9mph /  11.1km/h 13.8mph /  22.2km/h 28% 0in /  0.0mm
18:24 93.4 °F /  34.1 °C 54.3 °F /  12.4 °C 29.9in /  1013.4hPa Este 6.9mph /  11.1km/h 8.1mph /  13km/h 27% 0in /  0.0mm
18:29 93.2 °F /  34 °C 54.3 °F /  12.4 °C 29.9in /  1013.4hPa NE 6.9mph /  11.1km/h 13.5mph /  21.7km/h 27% 0in /  0.0mm
18:34 93 °F /  33.9 °C 53.1 °F /  11.7 °C 29.9in /  1013.3hPa ESE 6.9mph /  11.1km/h 12.7mph /  20.4km/h 26% 0in /  0.0mm
18:39 93 °F /  33.9 °C 54.1 °F /  12.3 °C 29.9in /  1013.3hPa Este 8.1mph /  13km/h 9.2mph /  14.8km/h 27% 0in /  0.0mm
18:44 92.8 °F /  33.8 °C 54 °F /  12.2 °C 29.9in /  1013.3hPa NNE 8.1mph /  13km/h 10.4mph /  16.7km/h 27% 0in /  0.0mm
18:49 93 °F /  33.9 °C 54.1 °F /  12.3 °C 29.9in /  1013.3hPa NE 7.4mph /  11.9km/h 12.7mph /  20.4km/h 27% 0in /  0.0mm
18:54 93 °F /  33.9 °C 54.1 °F /  12.3 °C 29.9in /  1013.3hPa Este 7.4mph /  11.9km/h 9.2mph /  14.8km/h 27% 0in /  0.0mm
18:59 93 °F /  33.9 °C 53.1 °F /  11.7 °C 29.9in /  1013.3hPa NE 5.9mph /  9.5km/h 12.7mph /  20.4km/h 26% 0in /  0.0mm
19:04 93 °F /  33.9 °C 50.9 °F /  10.5 °C 29.9in /  1013.2hPa ENE 5.9mph /  9.5km/h 15mph /  24.1km/h 24% 0in /  0.0mm
19:09 92.8 °F /  33.8 °C 50.7 °F /  10.4 °C 29.9in /  1013.2hPa ENE 9.2mph /  14.8km/h 13.8mph /  22.2km/h 24% 0in /  0.0mm
19:14 92.5 °F /  33.6 °C 48 °F /  8.9 °C 29.9in /  1013.2hPa NNE 9.2mph /  14.8km/h 15mph /  24.1km/h 22% 0in /  0.0mm
19:19 92.5 °F /  33.6 °C 49.3 °F /  9.6 °C 29.9in /  1013.3hPa NE 10mph /  16.1km/h 12.7mph /  20.4km/h 23% 0in /  0.0mm
19:24 92.3 °F /  33.5 °C 49.1 °F /  9.5 °C 29.9in /  1013.3hPa NE 10mph /  16.1km/h 15mph /  24.1km/h 23% 0in /  0.0mm
19:29 92.1 °F /  33.4 °C 47.8 °F /  8.8 °C 29.9in /  1013.3hPa NE 9.7mph /  15.6km/h 17.3mph /  27.8km/h 22% 0in /  0.0mm
19:34 91.9 °F /  33.3 °C 46.4 °F /  8 °C 29.9in /  1013.3hPa NNE 9.7mph /  15.6km/h 13.8mph /  22.2km/h 21% 0in /  0.0mm
19:39 91.8 °F /  33.2 °C 47.5 °F /  8.6 °C 29.9in /  1013.3hPa NE 10.2mph /  16.4km/h 15.2mph /  24.5km/h 22% 0in /  0.0mm
19:44 91.8 °F /  33.2 °C 47.5 °F /  8.6 °C 29.9in /  1013.3hPa NE 10.2mph /  16.4km/h 11.5mph /  18.5km/h 22% 0in /  0.0mm
19:49 91.6 °F /  33.1 °C 48.6 °F /  9.2 °C 29.9in /  1013.3hPa NNE 9.2mph /  14.8km/h 11.8mph /  19km/h 23% 0in /  0.0mm
19:54 91.4 °F /  33 °C 49.5 °F /  9.7 °C 29.9in /  1013.3hPa NNE 9.2mph /  14.8km/h 10.4mph /  16.7km/h 24% 0in /  0.0mm
19:59 91.2 °F /  32.9 °C 50.5 °F /  10.3 °C 29.9in /  1013.3hPa NE 8.1mph /  13km/h 10.4mph /  16.7km/h 25% 0in /  0.0mm
20:04 91.2 °F /  32.9 °C 52.5 °F /  11.4 °C 29.9in /  1013.3hPa ENE 8.1mph /  13km/h 9.2mph /  14.8km/h 27% 0in /  0.0mm
20:09 90.9 °F /  32.7 °C 54.1 °F /  12.3 °C 29.9in /  1013.3hPa ENE 6.2mph /  10km/h 11.5mph /  18.5km/h 29% 0in /  0.0mm
20:14 90.7 °F /  32.6 °C 55 °F /  12.8 °C 29.9in /  1013.3hPa ENE 6.2mph /  10km/h 10.4mph /  16.7km/h 30% 0in /  0.0mm
20:19 90.1 °F /  32.3 °C 55.4 °F /  13 °C 29.9in /  1013.3hPa ENE 6.4mph /  10.3km/h 10.4mph /  16.7km/h 31% 0in /  0.0mm
20:24 89.8 °F /  32.1 °C 55.9 °F /  13.3 °C 29.9in /  1013.3hPa NE 6.4mph /  10.3km/h 8.1mph /  13km/h 32% 0in /  0.0mm
20:29 89.4 °F /  31.9 °C 55.8 °F /  13.2 °C 29.9in /  1013.3hPa Este 6.2mph /  10km/h 10.4mph /  16.7km/h 32% 0in /  0.0mm
20:34 89.4 °F /  31.9 °C 56.5 °F /  13.6 °C 29.9in /  1013.3hPa ENE 6.2mph /  10km/h 8.1mph /  13km/h 33% 0in /  0.0mm
20:39 89.1 °F /  31.7 °C 56.1 °F /  13.4 °C 29.9in /  1013.3hPa ENE 5.2mph /  8.4km/h 8.1mph /  13km/h 33% 0in /  0.0mm
20:44 88.9 °F /  31.6 °C 56.1 °F /  13.4 °C 29.9in /  1013.3hPa ENE 5.2mph /  8.4km/h 5.8mph /  9.3km/h 33% 0in /  0.0mm
20:49 88.7 °F /  31.5 °C 55.9 °F /  13.3 °C 29.9in /  1013.4hPa NNE 4.3mph /  6.9km/h 6.9mph /  11.1km/h 33% 0in /  0.0mm
20:54 88.3 °F /  31.3 °C 56.5 °F /  13.6 °C 29.9in /  1013.4hPa NE 4.3mph /  6.9km/h 9.2mph /  14.8km/h 34% 0in /  0.0mm
20:59 88 °F /  31.1 °C 56.8 °F /  13.8 °C 29.9in /  1013.4hPa ESE 4.7mph /  7.6km/h 8.1mph /  13km/h 35% 0in /  0.0mm
21:04 87.6 °F /  30.9 °C 56.7 °F /  13.7 °C 29.9in /  1013.5hPa Este 4.7mph /  7.6km/h 4.6mph /  7.4km/h 35% 0in /  0.0mm
21:09 87.4 °F /  30.8 °C 56.5 °F /  13.6 °C 29.9in /  1013.5hPa NE 4mph /  6.4km/h 4.6mph /  7.4km/h 35% 0in /  0.0mm
21:14 87.1 °F /  30.6 °C 56.8 °F /  13.8 °C 29.9in /  1013.5hPa ESE 4mph /  6.4km/h 6.9mph /  11.1km/h 36% 0in /  0.0mm
21:19 86.9 °F /  30.5 °C 56.7 °F /  13.7 °C 29.9in /  1013.6hPa Este 4.3mph /  6.9km/h 6.9mph /  11.1km/h 36% 0in /  0.0mm
21:24 86.5 °F /  30.3 °C 56.5 °F /  13.6 °C 29.9in /  1013.6hPa ENE 4.3mph /  6.9km/h 5.8mph /  9.3km/h 36% 0in /  0.0mm
21:29 86.4 °F /  30.2 °C 56.3 °F /  13.5 °C 29.9in /  1013.6hPa ENE 4.7mph /  7.6km/h 9.2mph /  14.8km/h 36% 0in /  0.0mm
21:34 86.2 °F /  30.1 °C 56.1 °F /  13.4 °C 29.9in /  1013.5hPa ENE 4.7mph /  7.6km/h 6.9mph /  11.1km/h 36% 0in /  0.0mm
21:39 85.8 °F /  29.9 °C 56.5 °F /  13.6 °C 29.9in /  1013.5hPa ENE 5.4mph /  8.7km/h 6.9mph /  11.1km/h 37% 0in /  0.0mm
21:44 85.5 °F /  29.7 °C 57 °F /  13.9 °C 29.9in /  1013.5hPa ENE 5.4mph /  8.7km/h 11.5mph /  18.5km/h 38% 0in /  0.0mm
21:49 85.1 °F /  29.5 °C 57.4 °F /  14.1 °C 29.9in /  1013.6hPa NNE 7.4mph /  11.9km/h 10.4mph /  16.7km/h 39% 0in /  0.0mm
21:54 84.7 °F /  29.3 °C 57.7 °F /  14.3 °C 29.9in /  1013.6hPa ENE 7.4mph /  11.9km/h 11.5mph /  18.5km/h 40% 0in /  0.0mm
21:59 84.4 °F /  29.1 °C 57.4 °F /  14.1 °C 29.9in /  1013.6hPa NE 8.1mph /  13km/h 13.8mph /  22.2km/h 40% 0in /  0.0mm
22:04 84 °F /  28.9 °C 57.7 °F /  14.3 °C 29.9in /  1013.6hPa ENE 8.1mph /  13km/h 13.8mph /  22.2km/h 41% 0in /  0.0mm
22:09 83.8 °F /  28.8 °C 58.3 °F /  14.6 °C 29.9in /  1013.6hPa NNE 9.7mph /  15.6km/h 10.4mph /  16.7km/h 42% 0in /  0.0mm
22:14 83.5 °F /  28.6 °C 58.6 °F /  14.8 °C 29.9in /  1013.6hPa NNE 9.7mph /  15.6km/h 11.5mph /  18.5km/h 43% 0in /  0.0mm
22:19 83.1 °F /  28.4 °C 58.8 °F /  14.9 °C 29.9in /  1013.6hPa NE 8.1mph /  13km/h 10.4mph /  16.7km/h 44% 0in /  0.0mm
22:24 82.9 °F /  28.3 °C 59.4 °F /  15.2 °C 29.9in /  1013.6hPa NE 8.1mph /  13km/h 11.5mph /  18.5km/h 45% 0in /  0.0mm
22:29 82.8 °F /  28.2 °C 59.9 °F /  15.5 °C 29.9in /  1013.6hPa ENE 7.4mph /  11.9km/h 9.2mph /  14.8km/h 46% 0in /  0.0mm
22:34 82.6 °F /  28.1 °C 60.3 °F /  15.7 °C 29.9in /  1013.8hPa NE 7.4mph /  11.9km/h 11.5mph /  18.5km/h 47% 0in /  0.0mm
22:39 82.2 °F /  27.9 °C 60.1 °F /  15.6 °C 29.9in /  1013.8hPa Este 7.6mph /  12.2km/h 10.4mph /  16.7km/h 47% 0in /  0.0mm
22:44 82.2 °F /  27.9 °C 60.1 °F /  15.6 °C 29.9in /  1013.8hPa NE 7.6mph /  12.2km/h 12.7mph /  20.4km/h 47% 0in /  0.0mm
22:49 82 °F /  27.8 °C 59.7 °F /  15.4 °C 29.9in /  1014.0hPa NNE 6.9mph /  11.1km/h 9.2mph /  14.8km/h 47% 0in /  0.0mm
22:54 82 °F /  27.8 °C 59.7 °F /  15.4 °C 29.9in /  1014.0hPa ENE 6.9mph /  11.1km/h 9.2mph /  14.8km/h 47% 0in /  0.0mm
22:59 82 °F /  27.8 °C 59.7 °F /  15.4 °C 29.9in /  1014.0hPa Este 5.4mph /  8.7km/h 5.8mph /  9.3km/h 47% 0in /  0.0mm
23:04 82 °F /  27.8 °C 59.7 °F /  15.4 °C 30in /  1014.4hPa ENE 5.4mph /  8.7km/h 6.9mph /  11.1km/h 47% 0in /  0.0mm
23:09 81.9 °F /  27.7 °C 59.7 °F /  15.4 °C 30in /  1014.4hPa NE 4.7mph /  7.6km/h 10.4mph /  16.7km/h 47% 0in /  0.0mm
23:14 82 °F /  27.8 °C 59.7 °F /  15.4 °C 30in /  1014.4hPa NE 4.7mph /  7.6km/h 8.1mph /  13km/h 47% 0in /  0.0mm
23:19 82 °F /  27.8 °C 59.7 °F /  15.4 °C 30in /  1014.5hPa North 6.4mph /  10.3km/h 8.1mph /  13km/h 47% 0in /  0.0mm
23:24 82 °F /  27.8 °C 59.2 °F /  15.1 °C 30in /  1014.5hPa NNE 6.4mph /  10.3km/h 9.2mph /  14.8km/h 46% 0in /  0.0mm
23:29 82 °F /  27.8 °C 59.2 °F /  15.1 °C 30in /  1014.5hPa ENE 5.2mph /  8.4km/h 7.6mph /  12.2km/h 46% 0in /  0.0mm
23:34 82.2 °F /  27.9 °C 59.4 °F /  15.2 °C 30in /  1014.6hPa ENE 5.2mph /  8.4km/h 5.2mph /  8.4km/h 46% 0in /  0.0mm
23:39 82.2 °F /  27.9 °C 59.4 °F /  15.2 °C 30in /  1014.6hPa North 5.2mph /  8.4km/h 8.1mph /  13km/h 46% 0in /  0.0mm
23:44 82.2 °F /  27.9 °C 59.4 °F /  15.2 °C 30in /  1014.6hPa ENE 5.2mph /  8.4km/h 5.9mph /  9.5km/h 46% 0in /  0.0mm
23:49 82.2 °F /  27.9 °C 59.4 °F /  15.2 °C 30in /  1014.7hPa NE 3.6mph /  5.8km/h 5.8mph /  9.3km/h 46% 0in /  0.0mm
23:54 82 °F /  27.8 °C 59.2 °F /  15.1 °C 30in /  1014.7hPa NNE 3.6mph /  5.8km/h 5.8mph /  9.3km/h 46% 0in /  0.0mm
23:59 82 °F /  27.8 °C 58.6 °F /  14.8 °C 30in /  1014.7hPa NNE 4mph /  6.4km/h 6.9mph /  11.1km/h 45% 0in /  0.0mm
Murcia-Puente Tocinos, España
Compliments of Weather Underground - 3 mb

La estación de MeteoMurcia.com, publica sus datos en los siguientes proyectos:

Weather Underground PWS IMURCIAP2 Meteoclimatic www.awekas.at

W3Counter
Web Analytics